sensor_id;sensor_type;location;lat;lon;timestamp;pressure;altitude;pressure_sealevel;temperature;humidity
59475;BME280;45288;51.136;16.928;2023-11-18T00:01:09;100335.06;;;5.13;100.00
59475;BME280;45288;51.136;16.928;2023-11-18T00:03:35;100341.78;;;4.99;100.00
59475;BME280;45288;51.136;16.928;2023-11-18T00:06:01;100329.81;;;4.95;100.00
59475;BME280;45288;51.136;16.928;2023-11-18T00:08:27;100335.66;;;4.81;100.00
59475;BME280;45288;51.136;16.928;2023-11-18T00:10:52;100341.91;;;4.96;100.00
59475;BME280;45288;51.136;16.928;2023-11-18T00:13:19;100344.16;;;4.85;100.00
59475;BME280;45288;51.136;16.928;2023-11-18T00:15:44;100335.44;;;5.05;100.00
59475;BME280;45288;51.136;16.928;2023-11-18T00:18:12;100334.94;;;4.97;100.00
59475;BME280;45288;51.136;16.928;2023-11-18T00:20:38;100330.78;;;4.93;100.00
59475;BME280;45288;51.136;16.928;2023-11-18T00:23:03;100328.69;;;4.82;100.00
59475;BME280;45288;51.136;16.928;2023-11-18T00:25:32;100336.81;;;4.76;100.00
59475;BME280;45288;51.136;16.928;2023-11-18T00:27:59;100335.34;;;4.70;100.00
59475;BME280;45288;51.136;16.928;2023-11-18T00:30:25;100341.28;;;4.72;100.00
59475;BME280;45288;51.136;16.928;2023-11-18T00:32:50;100350.78;;;4.73;100.00
59475;BME280;45288;51.136;16.928;2023-11-18T00:35:16;100345.25;;;4.81;100.00
59475;BME280;45288;51.136;16.928;2023-11-18T00:37:43;100364.72;;;4.91;100.00
59475;BME280;45288;51.136;16.928;2023-11-18T00:40:09;100359.78;;;4.85;100.00
59475;BME280;45288;51.136;16.928;2023-11-18T00:42:37;100358.03;;;4.86;100.00
59475;BME280;45288;51.136;16.928;2023-11-18T00:45:05;100361.03;;;4.95;100.00
59475;BME280;45288;51.136;16.928;2023-11-18T00:47:31;100368.94;;;4.94;100.00
59475;BME280;45288;51.136;16.928;2023-11-18T00:49:57;100358.38;;;4.78;100.00
59475;BME280;45288;51.136;16.928;2023-11-18T00:52:23;100369.97;;;4.90;100.00
59475;BME280;45288;51.136;16.928;2023-11-18T00:54:49;100370.06;;;4.88;100.00
59475;BME280;45288;51.136;16.928;2023-11-18T00:57:15;100368.94;;;4.94;100.00
59475;BME280;45288;51.136;16.928;2023-11-18T00:59:43;100371.31;;;4.79;100.00
59475;BME280;45288;51.136;16.928;2023-11-18T01:02:09;100376.25;;;4.86;100.00
59475;BME280;45288;51.136;16.928;2023-11-18T01:04:35;100386.13;;;4.77;100.00
59475;BME280;45288;51.136;16.928;2023-11-18T01:07:01;100382.44;;;4.83;100.00
59475;BME280;45288;51.136;16.928;2023-11-18T01:09:26;100389.09;;;4.70;100.00
59475;BME280;45288;51.136;16.928;2023-11-18T01:11:52;100392.56;;;4.70;100.00
59475;BME280;45288;51.136;16.928;2023-11-18T01:14:19;100381.44;;;4.67;100.00
59475;BME280;45288;51.136;16.928;2023-11-18T01:16:44;100395.06;;;4.72;100.00
59475;BME280;45288;51.136;16.928;2023-11-18T01:19:12;100399.44;;;4.71;100.00
59475;BME280;45288;51.136;16.928;2023-11-18T01:21:38;100397.03;;;4.67;100.00
59475;BME280;45288;51.136;16.928;2023-11-18T01:24:04;100399.97;;;4.59;100.00
59475;BME280;45288;51.136;16.928;2023-11-18T01:26:31;100399.88;;;4.81;100.00
59475;BME280;45288;51.136;16.928;2023-11-18T01:28:57;100405.31;;;4.75;100.00
59475;BME280;45288;51.136;16.928;2023-11-18T01:31:23;100404.78;;;4.68;100.00
59475;BME280;45288;51.136;16.928;2023-11-18T01:33:49;100409.00;;;4.71;100.00
59475;BME280;45288;51.136;16.928;2023-11-18T01:36:15;100405.31;;;4.75;100.00
59475;BME280;45288;51.136;16.928;2023-11-18T01:38:43;100415.97;;;4.70;100.00
59475;BME280;45288;51.136;16.928;2023-11-18T01:41:09;100425.72;;;4.65;100.00
59475;BME280;45288;51.136;16.928;2023-11-18T01:43:34;100428.66;;;4.57;100.00
59475;BME280;45288;51.136;16.928;2023-11-18T01:46:05;100423.69;;;4.72;100.00
59475;BME280;45288;51.136;16.928;2023-11-18T01:48:32;100437.47;;;4.74;100.00
59475;BME280;45288;51.136;16.928;2023-11-18T01:50:59;100440.75;;;4.58;100.00
59475;BME280;45288;51.136;16.928;2023-11-18T01:53:28;100431.34;;;4.75;100.00
59475;BME280;45288;51.136;16.928;2023-11-18T01:55:54;100431.97;;;4.61;100.00
59475;BME280;45288;51.136;16.928;2023-11-18T01:58:20;100432.47;;;4.69;100.00
59475;BME280;45288;51.136;16.928;2023-11-18T02:00:49;100437.97;;;4.82;100.00
59475;BME280;45288;51.136;16.928;2023-11-18T02:03:17;100445.31;;;4.53;100.00
59475;BME280;45288;51.136;16.928;2023-11-18T02:05:43;100443.69;;;4.70;100.00
59475;BME280;45288;51.136;16.928;2023-11-18T02:08:10;100455.31;;;4.63;100.00
59475;BME280;45288;51.136;16.928;2023-11-18T02:11:04;100468.25;;;4.44;100.00
59475;BME280;45288;51.136;16.928;2023-11-18T02:13:31;100465.31;;;4.51;100.00
59475;BME280;45288;51.136;16.928;2023-11-18T02:15:58;100466.53;;;4.44;100.00
59475;BME280;45288;51.136;16.928;2023-11-18T02:18:29;100468.47;;;4.39;100.00
59475;BME280;45288;51.136;16.928;2023-11-18T02:20:58;100462.84;;;4.69;100.00
59475;BME280;45288;51.136;16.928;2023-11-18T02:23:25;100485.38;;;4.49;100.00
59475;BME280;45288;51.136;16.928;2023-11-18T02:25:55;100485.38;;;4.49;100.00
59475;BME280;45288;51.136;16.928;2023-11-18T02:28:24;100481.66;;;4.55;100.00
59475;BME280;45288;51.136;16.928;2023-11-18T02:30:56;100486.13;;;4.51;100.00
59475;BME280;45288;51.136;16.928;2023-11-18T02:36:09;100492.38;;;4.47;100.00
59475;BME280;45288;51.136;16.928;2023-11-18T02:38:40;100480.53;;;4.61;100.00
59475;BME280;45288;51.136;16.928;2023-11-18T02:41:10;100486.44;;;4.64;100.00
59475;BME280;45288;51.136;16.928;2023-11-18T02:43:39;100496.78;;;4.66;100.00
59475;BME280;45288;51.136;16.928;2023-11-18T02:46:06;100510.56;;;4.68;100.00
59475;BME280;45288;51.136;16.928;2023-11-18T02:48:33;100502.34;;;4.77;100.00
59475;BME280;45288;51.136;16.928;2023-11-18T02:50:59;100500.59;;;4.77;100.00
59475;BME280;45288;51.136;16.928;2023-11-18T02:53:25;100503.81;;;4.43;100.00
59475;BME280;45288;51.136;16.928;2023-11-18T02:55:51;100514.00;;;4.27;100.00
59475;BME280;45288;51.136;16.928;2023-11-18T02:58:18;100512.56;;;4.41;100.00
59475;BME280;45288;51.136;16.928;2023-11-18T03:00:44;100509.00;;;4.43;100.00
59475;BME280;45288;51.136;16.928;2023-11-18T03:03:11;100519.66;;;4.37;100.00
59475;BME280;45288;51.136;16.928;2023-11-18T03:05:37;100523.63;;;4.46;100.00
59475;BME280;45288;51.136;16.928;2023-11-18T03:08:04;100524.56;;;4.45;100.00
59475;BME280;45288;51.136;16.928;2023-11-18T03:10:32;100533.44;;;4.19;100.00
59475;BME280;45288;51.136;16.928;2023-11-18T03:13:01;100533.78;;;4.31;100.00
59475;BME280;45288;51.136;16.928;2023-11-18T03:15:27;100541.34;;;4.36;100.00
59475;BME280;45288;51.136;16.928;2023-11-18T03:17:54;100530.44;;;4.28;100.00
59475;BME280;45288;51.136;16.928;2023-11-18T03:20:22;100548.72;;;4.26;100.00
59475;BME280;45288;51.136;16.928;2023-11-18T03:22:50;100549.59;;;4.25;100.00
59475;BME280;45288;51.136;16.928;2023-11-18T03:25:17;100551.84;;;4.12;100.00
59475;BME280;45288;51.136;16.928;2023-11-18T03:27:44;100557.88;;;4.13;100.00
59475;BME280;45288;51.136;16.928;2023-11-18T03:30:10;100543.75;;;4.20;100.00
59475;BME280;45288;51.136;16.928;2023-11-18T03:32:38;100554.63;;;4.30;100.00
59475;BME280;45288;51.136;16.928;2023-11-18T03:35:06;100563.38;;;4.27;100.00
59475;BME280;45288;51.136;16.928;2023-11-18T03:37:35;100556.22;;;4.12;100.00
59475;BME280;45288;51.136;16.928;2023-11-18T03:40:01;100561.44;;;4.32;100.00
59475;BME280;45288;51.136;16.928;2023-11-18T03:42:27;100559.88;;;4.28;100.00
59475;BME280;45288;51.136;16.928;2023-11-18T03:44:54;100563.69;;;4.20;100.00
59475;BME280;45288;51.136;16.928;2023-11-18T03:47:20;100561.63;;;4.28;100.00
59475;BME280;45288;51.136;16.928;2023-11-18T03:49:52;100563.88;;;4.37;100.00
59475;BME280;45288;51.136;16.928;2023-11-18T03:52:19;100572.50;;;4.37;100.00
59475;BME280;45288;51.136;16.928;2023-11-18T03:54:45;100570.69;;;4.18;100.00
59475;BME280;45288;51.136;16.928;2023-11-18T03:57:11;100567.09;;;4.22;100.00
59475;BME280;45288;51.136;16.928;2023-11-18T03:59:41;100571.50;;;4.20;100.00
59475;BME280;45288;51.136;16.928;2023-11-18T04:02:07;100576.38;;;4.49;100.00
59475;BME280;45288;51.136;16.928;2023-11-18T04:04:33;100580.63;;;4.50;100.00
59475;BME280;45288;51.136;16.928;2023-11-18T04:06:59;100580.13;;;4.42;100.00
59475;BME280;45288;51.136;16.928;2023-11-18T04:09:27;100585.31;;;4.42;100.00
59475;BME280;45288;51.136;16.928;2023-11-18T04:11:52;100589.41;;;4.48;100.00
59475;BME280;45288;51.136;16.928;2023-11-18T04:14:18;100585.44;;;4.39;100.00
59475;BME280;45288;51.136;16.928;2023-11-18T04:16:45;100591.66;;;4.35;100.00
59475;BME280;45288;51.136;16.928;2023-11-18T04:19:11;100593.16;;;4.41;100.00
59475;BME280;45288;51.136;16.928;2023-11-18T04:21:37;100589.06;;;4.35;100.00
59475;BME280;45288;51.136;16.928;2023-11-18T04:24:04;100601.81;;;4.41;100.00
59475;BME280;45288;51.136;16.928;2023-11-18T04:26:31;100597.25;;;4.46;100.00
59475;BME280;45288;51.136;16.928;2023-11-18T04:28:57;100596.72;;;4.60;100.00
59475;BME280;45288;51.136;16.928;2023-11-18T04:31:24;100607.00;;;4.41;100.00
59475;BME280;45288;51.136;16.928;2023-11-18T04:33:50;100604.31;;;4.44;100.00
59475;BME280;45288;51.136;16.928;2023-11-18T04:36:16;100615.88;;;4.57;100.00
59475;BME280;45288;51.136;16.928;2023-11-18T04:38:42;100616.38;;;4.45;100.00
59475;BME280;45288;51.136;16.928;2023-11-18T04:41:11;100610.16;;;4.27;100.00
59475;BME280;45288;51.136;16.928;2023-11-18T04:43:37;100608.59;;;4.45;100.00
59475;BME280;45288;51.136;16.928;2023-11-18T04:46:06;100613.06;;;4.42;100.00
59475;BME280;45288;51.136;16.928;2023-11-18T04:48:32;100610.88;;;4.53;100.00
59475;BME280;45288;51.136;16.928;2023-11-18T04:50:59;100612.34;;;4.38;100.00
59475;BME280;45288;51.136;16.928;2023-11-18T04:53:25;100617.97;;;4.49;100.00
59475;BME280;45288;51.136;16.928;2023-11-18T04:55:51;100621.31;;;4.51;100.00
59475;BME280;45288;51.136;16.928;2023-11-18T04:58:17;100613.97;;;4.41;100.00
59475;BME280;45288;51.136;16.928;2023-11-18T05:00:43;100615.97;;;4.34;100.00
59475;BME280;45288;51.136;16.928;2023-11-18T05:03:09;100626.44;;;4.32;100.00
59475;BME280;45288;51.136;16.928;2023-11-18T05:05:36;100613.84;;;4.44;100.00
59475;BME280;45288;51.136;16.928;2023-11-18T05:08:04;100618.00;;;4.48;100.00
59475;BME280;45288;51.136;16.928;2023-11-18T05:10:32;100622.50;;;4.44;100.00
59475;BME280;45288;51.136;16.928;2023-11-18T05:12:59;100619.66;;;4.50;100.00
59475;BME280;45288;51.136;16.928;2023-11-18T05:15:25;100625.59;;;4.32;100.00
59475;BME280;45288;51.136;16.928;2023-11-18T05:17:51;100618.97;;;4.45;100.00
59475;BME280;45288;51.136;16.928;2023-11-18T05:20:18;100620.09;;;4.40;100.00
59475;BME280;45288;51.136;16.928;2023-11-18T05:22:43;100627.88;;;4.18;100.00
59475;BME280;45288;51.136;16.928;2023-11-18T05:25:09;100634.00;;;4.17;100.00
59475;BME280;45288;51.136;16.928;2023-11-18T05:27:35;100643.28;;;4.22;100.00
59475;BME280;45288;51.136;16.928;2023-11-18T05:30:01;100641.72;;;4.18;100.00
59475;BME280;45288;51.136;16.928;2023-11-18T05:32:28;100640.38;;;4.08;100.00
59475;BME280;45288;51.136;16.928;2023-11-18T05:34:54;100645.94;;;4.21;100.00
59475;BME280;45288;51.136;16.928;2023-11-18T05:37:21;100648.53;;;4.21;100.00
59475;BME280;45288;51.136;16.928;2023-11-18T05:39:47;100644.25;;;4.20;100.00
59475;BME280;45288;51.136;16.928;2023-11-18T05:42:15;100652.28;;;4.35;100.00
59475;BME280;45288;51.136;16.928;2023-11-18T05:44:41;100652.25;;;4.37;100.00
59475;BME280;45288;51.136;16.928;2023-11-18T05:47:08;100662.28;;;4.24;100.00
59475;BME280;45288;51.136;16.928;2023-11-18T05:49:37;100652.59;;;4.28;100.00
59475;BME280;45288;51.136;16.928;2023-11-18T05:52:04;100659.59;;;4.26;100.00
59475;BME280;45288;51.136;16.928;2023-11-18T05:54:30;100661.38;;;4.25;100.00
59475;BME280;45288;51.136;16.928;2023-11-18T05:56:56;100672.47;;;4.07;100.00
59475;BME280;45288;51.136;16.928;2023-11-18T05:59:25;100671.38;;;4.12;100.00
59475;BME280;45288;51.136;16.928;2023-11-18T06:01:52;100672.06;;;4.18;100.00
59475;BME280;45288;51.136;16.928;2023-11-18T06:04:18;100678.00;;;4.21;100.00
59475;BME280;45288;51.136;16.928;2023-11-18T06:06:44;100676.47;;;4.15;100.00
59475;BME280;45288;51.136;16.928;2023-11-18T06:09:10;100685.78;;;4.43;100.00
59475;BME280;45288;51.136;16.928;2023-11-18T06:11:43;100681.31;;;4.25;100.00
59475;BME280;45288;51.136;16.928;2023-11-18T06:14:11;100685.66;;;4.46;100.00
59475;BME280;45288;51.136;16.928;2023-11-18T06:16:38;100685.50;;;4.51;100.00
59475;BME280;45288;51.136;16.928;2023-11-18T06:19:06;100672.97;;;4.61;100.00
59475;BME280;45288;51.136;16.928;2023-11-18T06:21:32;100694.25;;;4.70;100.00
59475;BME280;45288;51.136;16.928;2023-11-18T06:23:58;100687.56;;;4.65;100.00
59475;BME280;45288;51.136;16.928;2023-11-18T06:26:25;100685.19;;;4.58;100.00
59475;BME280;45288;51.136;16.928;2023-11-18T06:28:53;100689.00;;;4.50;100.00
59475;BME280;45288;51.136;16.928;2023-11-18T06:31:20;100691.13;;;4.40;100.00
59475;BME280;45288;51.136;16.928;2023-11-18T06:33:47;100695.66;;;4.35;100.00
59475;BME280;45288;51.136;16.928;2023-11-18T06:38:39;100693.47;;;4.24;100.00
59475;BME280;45288;51.136;16.928;2023-11-18T06:41:09;100711.84;;;4.20;100.00
59475;BME280;45288;51.136;16.928;2023-11-18T06:43:40;100702.09;;;4.25;100.00
59475;BME280;45288;51.136;16.928;2023-11-18T06:46:22;100710.28;;;4.37;100.00
59475;BME280;45288;51.136;16.928;2023-11-18T06:48:49;100716.78;;;4.26;100.00
59475;BME280;45288;51.136;16.928;2023-11-18T06:51:16;100717.03;;;4.20;100.00
59475;BME280;45288;51.136;16.928;2023-11-18T06:53:42;100713.88;;;4.33;100.00
59475;BME280;45288;51.136;16.928;2023-11-18T06:56:09;100725.34;;;4.29;100.00
59475;BME280;45288;51.136;16.928;2023-11-18T06:58:39;100721.63;;;4.35;100.00
59475;BME280;45288;51.136;16.928;2023-11-18T07:01:05;100738.88;;;4.37;100.00
59475;BME280;45288;51.136;16.928;2023-11-18T07:03:32;100740.47;;;4.64;100.00
59475;BME280;45288;51.136;16.928;2023-11-18T07:05:57;100742.28;;;4.40;100.00
59475;BME280;45288;51.136;16.928;2023-11-18T07:08:23;100741.06;;;4.26;100.00
59475;BME280;45288;51.136;16.928;2023-11-18T07:10:50;100742.59;;;4.30;100.00
59475;BME280;45288;51.136;16.928;2023-11-18T07:13:15;100750.88;;;4.42;100.00
59475;BME280;45288;51.136;16.928;2023-11-18T07:15:42;100741.06;;;4.48;100.00
59475;BME280;45288;51.136;16.928;2023-11-18T07:18:08;100745.47;;;4.46;100.00
59475;BME280;45288;51.136;16.928;2023-11-18T07:20:35;100752.16;;;4.30;100.00
59475;BME280;45288;51.136;16.928;2023-11-18T07:23:00;100754.47;;;4.37;100.00
59475;BME280;45288;51.136;16.928;2023-11-18T07:25:26;100756.47;;;4.53;100.00
59475;BME280;45288;51.136;16.928;2023-11-18T07:27:52;100756.53;;;4.51;100.00
59475;BME280;45288;51.136;16.928;2023-11-18T07:30:19;100749.66;;;4.50;100.00
59475;BME280;45288;51.136;16.928;2023-11-18T07:32:45;100756.44;;;4.54;100.00
59475;BME280;45288;51.136;16.928;2023-11-18T07:35:11;100757.03;;;4.83;100.00
59475;BME280;45288;51.136;16.928;2023-11-18T07:37:37;100758.50;;;4.68;100.00
59475;BME280;45288;51.136;16.928;2023-11-18T07:40:04;100757.28;;;4.77;100.00
59475;BME280;45288;51.136;16.928;2023-11-18T07:42:31;100759.75;;;4.80;100.00
59475;BME280;45288;51.136;16.928;2023-11-18T07:45:04;100759.50;;;4.86;100.00
59475;BME280;45288;51.136;16.928;2023-11-18T07:47:30;100763.88;;;4.64;100.00
59475;BME280;45288;51.136;16.928;2023-11-18T07:49:58;100766.97;;;4.73;100.00
59475;BME280;45288;51.136;16.928;2023-11-18T07:52:26;100765.25;;;4.50;100.00
59475;BME280;45288;51.136;16.928;2023-11-18T07:54:53;100780.56;;;4.58;100.00
59475;BME280;45288;51.136;16.928;2023-11-18T07:57:19;100781.97;;;4.43;100.00
59475;BME280;45288;51.136;16.928;2023-11-18T07:59:45;100778.59;;;4.41;100.00
59475;BME280;45288;51.136;16.928;2023-11-18T08:02:11;100781.06;;;4.68;100.00
59475;BME280;45288;51.136;16.928;2023-11-18T08:04:40;100777.25;;;4.54;100.00
59475;BME280;45288;51.136;16.928;2023-11-18T08:07:06;100781.91;;;4.68;100.00
59475;BME280;45288;51.136;16.928;2023-11-18T08:09:33;100785.03;;;4.76;100.00
59475;BME280;45288;51.136;16.928;2023-11-18T08:11:59;100776.31;;;4.77;100.00
59475;BME280;45288;51.136;16.928;2023-11-18T08:14:25;100774.81;;;4.72;100.00
59475;BME280;45288;51.136;16.928;2023-11-18T08:16:50;100783.22;;;4.78;100.00
59475;BME280;45288;51.136;16.928;2023-11-18T08:19:16;100785.22;;;4.94;100.00
59475;BME280;45288;51.136;16.928;2023-11-18T08:21:43;100784.59;;;4.87;100.00
59475;BME280;45288;51.136;16.928;2023-11-18T08:24:08;100790.41;;;4.72;100.00
59475;BME280;45288;51.136;16.928;2023-11-18T08:26:35;100787.03;;;4.70;100.00
59475;BME280;45288;51.136;16.928;2023-11-18T08:29:01;100800.97;;;4.91;100.00
59475;BME280;45288;51.136;16.928;2023-11-18T08:31:27;100797.44;;;4.92;100.00
59475;BME280;45288;51.136;16.928;2023-11-18T08:33:53;100805.13;;;4.95;100.00
59475;BME280;45288;51.136;16.928;2023-11-18T08:36:20;100803.53;;;4.69;100.00
59475;BME280;45288;51.136;16.928;2023-11-18T08:38:48;100805.97;;;4.73;100.00
59475;BME280;45288;51.136;16.928;2023-11-18T08:41:14;100814.53;;;4.53;100.00
59475;BME280;45288;51.136;16.928;2023-11-18T08:43:40;100817.19;;;4.75;100.00
59475;BME280;45288;51.136;16.928;2023-11-18T08:46:07;100819.41;;;5.07;100.00
59475;BME280;45288;51.136;16.928;2023-11-18T08:48:33;100813.06;;;4.92;100.00
59475;BME280;45288;51.136;16.928;2023-11-18T08:51:01;100818.00;;;5.20;100.00
59475;BME280;45288;51.136;16.928;2023-11-18T08:53:27;100826.97;;;5.13;100.00
59475;BME280;45288;51.136;16.928;2023-11-18T08:55:53;100829.25;;;5.42;100.00
59475;BME280;45288;51.136;16.928;2023-11-18T08:58:22;100824.72;;;5.25;100.00
59475;BME280;45288;51.136;16.928;2023-11-18T09:00:53;100833.13;;;5.32;100.00
59475;BME280;45288;51.136;16.928;2023-11-18T09:03:23;100837.63;;;5.49;100.00
59475;BME280;45288;51.136;16.928;2023-11-18T09:06:15;100848.31;;;5.43;100.00
59475;BME280;45288;51.136;16.928;2023-11-18T09:08:51;100854.00;;;5.31;100.00
59475;BME280;45288;51.136;16.928;2023-11-18T09:11:22;100858.56;;;5.25;100.00
59475;BME280;45288;51.136;16.928;2023-11-18T09:13:49;100862.56;;;5.55;100.00
59475;BME280;45288;51.136;16.928;2023-11-18T09:16:20;100863.97;;;5.63;100.00
59475;BME280;45288;51.136;16.928;2023-11-18T09:18:51;100870.16;;;5.61;100.00
59475;BME280;45288;51.136;16.928;2023-11-18T09:21:17;100859.88;;;5.58;100.00
59475;BME280;45288;51.136;16.928;2023-11-18T09:23:50;100861.94;;;5.70;100.00
59475;BME280;45288;51.136;16.928;2023-11-18T09:26:17;100864.16;;;5.59;100.00
59475;BME280;45288;51.136;16.928;2023-11-18T09:28:43;100873.28;;;5.89;100.00
59475;BME280;45288;51.136;16.928;2023-11-18T09:31:12;100867.16;;;5.90;100.00
59475;BME280;45288;51.136;16.928;2023-11-18T09:33:40;100868.94;;;6.10;100.00
59475;BME280;45288;51.136;16.928;2023-11-18T09:36:12;100876.81;;;6.29;100.00
59475;BME280;45288;51.136;16.928;2023-11-18T09:38:39;100869.28;;;6.03;100.00
59475;BME280;45288;51.136;16.928;2023-11-18T09:41:10;100880.03;;;5.95;100.00
59475;BME280;45288;51.136;16.928;2023-11-18T09:43:40;100877.19;;;5.79;100.00
59475;BME280;45288;51.136;16.928;2023-11-18T09:46:23;100874.09;;;5.92;100.00
59475;BME280;45288;51.136;16.928;2023-11-18T09:48:51;100875.75;;;5.72;100.00
59475;BME280;45288;51.136;16.928;2023-11-18T09:51:32;100880.97;;;5.94;100.00
59475;BME280;45288;51.136;16.928;2023-11-18T09:54:00;100878.91;;;6.01;100.00
59475;BME280;45288;51.136;16.928;2023-11-18T09:56:59;100877.97;;;5.61;100.00
59475;BME280;45288;51.136;16.928;2023-11-18T10:00:07;100879.47;;;5.66;100.00
59475;BME280;45288;51.136;16.928;2023-11-18T10:02:53;100880.13;;;5.72;100.00
59475;BME280;45288;51.136;16.928;2023-11-18T10:05:21;100880.81;;;5.55;100.00
59475;BME280;45288;51.136;16.928;2023-11-18T10:07:49;100877.03;;;5.62;100.00
59475;BME280;45288;51.136;16.928;2023-11-18T10:10:16;100890.22;;;5.79;100.00
59475;BME280;45288;51.136;16.928;2023-11-18T10:12:45;100903.66;;;5.90;100.00
59475;BME280;45288;51.136;16.928;2023-11-18T10:15:21;100893.75;;;6.19;100.00
59475;BME280;45288;51.136;16.928;2023-11-18T10:17:52;100899.06;;;5.97;100.00
59475;BME280;45288;51.136;16.928;2023-11-18T10:20:47;100896.16;;;5.83;100.00
59475;BME280;45288;51.136;16.928;2023-11-18T10:23:16;100901.84;;;5.93;100.00
59475;BME280;45288;51.136;16.928;2023-11-18T10:25:57;100913.88;;;5.97;100.00
59475;BME280;45288;51.136;16.928;2023-11-18T10:28:35;100916.16;;;5.82;100.00
59475;BME280;45288;51.136;16.928;2023-11-18T10:31:06;100912.28;;;6.13;100.00
59475;BME280;45288;51.136;16.928;2023-11-18T10:33:38;100904.75;;;6.07;100.00
59475;BME280;45288;51.136;16.928;2023-11-18T10:36:20;100899.91;;;5.98;100.00
59475;BME280;45288;51.136;16.928;2023-11-18T10:38:50;100914.59;;;5.78;100.00
59475;BME280;45288;51.136;16.928;2023-11-18T10:41:19;100901.78;;;5.52;100.00
59475;BME280;45288;51.136;16.928;2023-11-18T10:43:45;100907.25;;;5.45;100.00
59475;BME280;45288;51.136;16.928;2023-11-18T10:46:15;100906.03;;;5.32;100.00
59475;BME280;45288;51.136;16.928;2023-11-18T10:48:45;100914.03;;;5.28;100.00
59475;BME280;45288;51.136;16.928;2023-11-18T10:51:16;100907.00;;;5.30;100.00
59475;BME280;45288;51.136;16.928;2023-11-18T10:53:48;100902.66;;;5.30;100.00
59475;BME280;45288;51.136;16.928;2023-11-18T10:56:50;100903.75;;;5.24;100.00
59475;BME280;45288;51.136;16.928;2023-11-18T10:59:17;100910.03;;;5.41;100.00
59475;BME280;45288;51.136;16.928;2023-11-18T11:01:44;100917.03;;;5.61;100.00
59475;BME280;45288;51.136;16.928;2023-11-18T11:04:13;100917.94;;;5.60;100.00
59475;BME280;45288;51.136;16.928;2023-11-18T11:06:49;100924.19;;;5.56;100.00
59475;BME280;45288;51.136;16.928;2023-11-18T11:09:25;100933.50;;;5.39;100.00
59475;BME280;45288;51.136;16.928;2023-11-18T11:11:56;100926.84;;;5.54;100.00
59475;BME280;45288;51.136;16.928;2023-11-18T11:14:33;100921.88;;;5.70;100.00
59475;BME280;45288;51.136;16.928;2023-11-18T11:17:12;100927.72;;;5.75;100.00
59475;BME280;45288;51.136;16.928;2023-11-18T11:19:53;100925.53;;;5.66;100.00
59475;BME280;45288;51.136;16.928;2023-11-18T11:22:37;100927.34;;;5.64;100.00
59475;BME280;45288;51.136;16.928;2023-11-18T11:27:59;100930.25;;;5.78;100.00
59475;BME280;45288;51.136;16.928;2023-11-18T11:30:44;100937.09;;;5.81;100.00
59475;BME280;45288;51.136;16.928;2023-11-18T11:33:33;100938.16;;;5.75;100.00
59475;BME280;45288;51.136;16.928;2023-11-18T11:36:12;100934.25;;;5.85;100.00
59475;BME280;45288;51.136;16.928;2023-11-18T11:38:44;100931.91;;;5.79;100.00
59475;BME280;45288;51.136;16.928;2023-11-18T11:41:15;100926.31;;;5.88;100.00
59475;BME280;45288;51.136;16.928;2023-11-18T11:43:49;100941.63;;;5.98;100.00
59475;BME280;45288;51.136;16.928;2023-11-18T11:46:16;100937.56;;;6.11;100.00
59475;BME280;45288;51.136;16.928;2023-11-18T11:48:51;100944.59;;;6.09;100.00
59475;BME280;45288;51.136;16.928;2023-11-18T11:51:26;100952.44;;;6.09;100.00
59475;BME280;45288;51.136;16.928;2023-11-18T11:54:18;100942.13;;;6.06;100.00
59475;BME280;45288;51.136;16.928;2023-11-18T11:56:48;100940.31;;;6.08;100.00
59475;BME280;45288;51.136;16.928;2023-11-18T12:02:11;100938.88;;;6.21;100.00
59475;BME280;45288;51.136;16.928;2023-11-18T12:04:44;100944.94;;;6.22;100.00
59475;BME280;45288;51.136;16.928;2023-11-18T12:07:11;100938.34;;;6.33;100.00
59475;BME280;45288;51.136;16.928;2023-11-18T12:09:42;100926.50;;;6.26;100.00
59475;BME280;45288;51.136;16.928;2023-11-18T12:12:20;100937.56;;;6.52;100.00
59475;BME280;45288;51.136;16.928;2023-11-18T12:14:54;100940.31;;;6.49;100.00
59475;BME280;45288;51.136;16.928;2023-11-18T12:17:26;100936.56;;;6.54;100.00
59475;BME280;45288;51.136;16.928;2023-11-18T12:19:58;100933.41;;;6.27;100.00
59475;BME280;45288;51.136;16.928;2023-11-18T12:22:25;100937.94;;;6.43;100.00
59475;BME280;45288;51.136;16.928;2023-11-18T12:33:02;100946.31;;;6.51;100.00
59475;BME280;45288;51.136;16.928;2023-11-18T12:43:16;100956.78;;;6.49;100.00
59475;BME280;45288;51.136;16.928;2023-11-18T12:48:43;100942.47;;;6.39;100.00
59475;BME280;45288;51.136;16.928;2023-11-18T12:51:13;100950.47;;;6.34;100.00
59475;BME280;45288;51.136;16.928;2023-11-18T12:53:47;100954.38;;;6.45;100.00
59475;BME280;45288;51.136;16.928;2023-11-18T12:56:17;100953.47;;;6.66;100.00
59475;BME280;45288;51.136;16.928;2023-11-18T12:58:48;100958.28;;;6.55;100.00
59475;BME280;45288;51.136;16.928;2023-11-18T13:01:15;100954.22;;;6.48;100.00
59475;BME280;45288;51.136;16.928;2023-11-18T13:03:42;100960.19;;;6.51;100.00
59475;BME280;45288;51.136;16.928;2023-11-18T13:06:11;100950.75;;;6.28;100.00
59475;BME280;45288;51.136;16.928;2023-11-18T13:08:41;100949.16;;;6.24;100.00
59475;BME280;45288;51.136;16.928;2023-11-18T13:11:07;100947.00;;;6.54;100.00
59475;BME280;45288;51.136;16.928;2023-11-18T13:13:41;100947.59;;;6.61;100.00
59475;BME280;45288;51.136;16.928;2023-11-18T13:16:07;100953.00;;;6.57;100.00
59475;BME280;45288;51.136;16.928;2023-11-18T13:18:45;100953.22;;;6.31;100.00